createdAt,value
2022-11-15T00:00:55.582Z,0.00
2022-11-15T00:01:55.595Z,0.00
2022-11-15T00:02:55.538Z,0.00
2022-11-15T00:03:55.514Z,0.00
2022-11-15T00:04:55.499Z,0.00
2022-11-15T00:05:55.516Z,0.00
2022-11-15T00:06:55.493Z,0.00
2022-11-15T00:07:56.300Z,0.00
2022-11-15T00:08:55.400Z,0.00
2022-11-15T00:09:55.397Z,0.00
2022-11-15T00:10:55.345Z,0.00
2022-11-15T00:11:55.320Z,0.00
2022-11-15T00:12:55.317Z,0.00
2022-11-15T00:13:55.306Z,0.00
2022-11-15T00:14:55.259Z,0.00
2022-11-15T00:15:55.223Z,0.00
2022-11-15T00:16:55.202Z,0.00
2022-11-15T00:17:55.195Z,0.00
2022-11-15T00:18:55.160Z,0.00
2022-11-15T00:19:55.137Z,0.00
2022-11-15T00:20:55.112Z,0.00
2022-11-15T00:21:55.098Z,0.00
2022-11-15T00:22:55.062Z,0.00
2022-11-15T00:23:55.057Z,0.00
2022-11-15T00:24:55.023Z,0.00
2022-11-15T00:25:54.983Z,0.00
2022-11-15T00:26:54.967Z,0.00
2022-11-15T00:27:54.955Z,0.00
2022-11-15T00:28:54.917Z,0.00
2022-11-15T00:29:54.889Z,0.00
2022-11-15T00:30:54.871Z,0.00
2022-11-15T00:31:54.846Z,0.00
2022-11-15T00:32:54.815Z,0.00
2022-11-15T00:33:54.818Z,0.00
2022-11-15T00:34:54.773Z,0.00
2022-11-15T00:35:54.743Z,0.00
2022-11-15T00:36:54.721Z,0.00
2022-11-15T00:37:54.717Z,0.00
2022-11-15T00:38:54.692Z,0.00
2022-11-15T00:39:54.653Z,0.00
2022-11-15T00:40:54.631Z,0.00
2022-11-15T00:41:54.603Z,0.00
2022-11-15T00:42:54.578Z,0.00
2022-11-15T00:43:54.572Z,0.00
2022-11-15T00:44:54.535Z,0.00
2022-11-15T00:45:54.508Z,0.00
2022-11-15T00:46:54.486Z,0.00
2022-11-15T00:47:54.462Z,0.00
2022-11-15T00:48:54.436Z,0.00
2022-11-15T00:49:54.415Z,0.00
2022-11-15T00:50:54.402Z,0.00
2022-11-15T00:51:54.366Z,0.00
2022-11-15T00:52:54.338Z,0.00
2022-11-15T00:53:54.324Z,0.00
2022-11-15T00:54:54.292Z,0.00
2022-11-15T00:55:54.274Z,0.00
2022-11-15T00:56:54.244Z,0.00
2022-11-15T00:57:54.224Z,0.00
2022-11-15T00:58:54.198Z,0.00
2022-11-15T00:59:54.175Z,0.00
2022-11-15T01:00:54.232Z,0.00
2022-11-15T01:01:54.121Z,0.00
2022-11-15T01:02:54.114Z,0.00
2022-11-15T01:03:58.618Z,0.00
2022-11-15T01:04:54.071Z,0.00
2022-11-15T01:05:54.030Z,0.00
2022-11-15T01:06:54.053Z,0.00
2022-11-15T01:07:53.984Z,0.00
2022-11-15T01:08:53.974Z,0.00
2022-11-15T01:09:53.935Z,0.00
2022-11-15T01:10:53.925Z,0.00
2022-11-15T01:11:53.889Z,0.00
2022-11-15T01:12:53.868Z,0.00
2022-11-15T01:13:53.838Z,0.00
2022-11-15T01:14:53.813Z,0.00
2022-11-15T01:15:53.788Z,0.00
2022-11-15T01:16:53.763Z,0.00
2022-11-15T01:17:53.739Z,0.00
2022-11-15T01:18:53.712Z,0.00
2022-11-15T01:19:53.703Z,0.00
2022-11-15T01:20:53.677Z,0.00
2022-11-15T01:21:53.674Z,0.00
2022-11-15T01:22:53.624Z,0.00
2022-11-15T01:23:53.598Z,0.00
2022-11-15T01:24:53.575Z,0.00
2022-11-15T01:25:53.570Z,0.00
2022-11-15T01:26:53.528Z,0.00
2022-11-15T01:27:53.506Z,0.00
2022-11-15T01:28:53.476Z,0.00
2022-11-15T01:29:53.452Z,0.00
2022-11-15T01:30:53.426Z,0.00
2022-11-15T01:31:53.403Z,0.00
2022-11-15T01:32:53.381Z,0.00
2022-11-15T01:33:53.356Z,0.00
2022-11-15T01:34:53.337Z,0.00
2022-11-15T01:35:53.319Z,0.00
2022-11-15T01:36:53.291Z,0.00
2022-11-15T01:37:53.266Z,0.00
2022-11-15T01:38:53.247Z,0.00
2022-11-15T01:39:53.216Z,0.00
2022-11-15T01:40:53.189Z,0.00
2022-11-15T01:41:53.170Z,0.00
2022-11-15T01:42:53.147Z,0.00
2022-11-15T01:43:53.122Z,0.00
2022-11-15T01:44:53.093Z,0.00
2022-11-15T01:45:53.096Z,0.00
2022-11-15T01:46:53.047Z,0.00
2022-11-15T01:47:53.039Z,0.00
2022-11-15T01:48:53.007Z,0.00
2022-11-15T01:49:52.970Z,0.00
2022-11-15T01:50:52.956Z,0.00
2022-11-15T01:51:52.922Z,0.00
2022-11-15T01:52:52.905Z,0.00
2022-11-15T01:53:52.896Z,0.00
2022-11-15T01:54:52.858Z,0.00
2022-11-15T01:55:52.833Z,0.00
2022-11-15T01:56:52.812Z,0.00
2022-11-15T01:57:52.822Z,0.00
2022-11-15T01:58:52.758Z,0.00
2022-11-15T01:59:52.730Z,0.00
2022-11-15T02:00:52.752Z,0.00
2022-11-15T02:01:52.681Z,0.00
2022-11-15T02:02:52.780Z,0.00
2022-11-15T02:03:52.667Z,0.00
2022-11-15T02:04:52.622Z,0.00
2022-11-15T02:05:52.586Z,0.00
2022-11-15T02:06:52.639Z,0.00
2022-11-15T02:07:52.560Z,0.00
2022-11-15T02:09:52.497Z,0.00
2022-11-15T02:10:52.463Z,0.00
2022-11-15T02:11:52.446Z,0.00
2022-11-15T02:12:52.418Z,0.00
2022-11-15T02:13:52.405Z,0.00
2022-11-15T02:14:52.369Z,0.00
2022-11-15T02:15:52.359Z,0.00
2022-11-15T02:16:52.317Z,0.00
2022-11-15T02:17:52.313Z,0.00
2022-11-15T02:18:52.276Z,0.00
2022-11-15T02:19:52.245Z,0.00
2022-11-15T02:20:52.256Z,0.00
2022-11-15T02:21:52.203Z,0.00
2022-11-15T02:22:52.178Z,0.00
2022-11-15T02:23:52.162Z,0.00
2022-11-15T02:24:52.150Z,0.00
2022-11-15T02:25:52.105Z,0.00
2022-11-15T02:26:52.105Z,0.00
2022-11-15T02:27:52.062Z,0.00
2022-11-15T02:28:52.027Z,0.00
2022-11-15T02:29:52.003Z,0.00
2022-11-15T02:30:51.975Z,0.00
2022-11-15T02:31:51.965Z,0.00
2022-11-15T02:32:51.934Z,0.00
2022-11-15T02:33:51.906Z,0.00
2022-11-15T02:34:51.882Z,0.00
2022-11-15T02:35:51.865Z,0.00
2022-11-15T02:36:51.839Z,0.00
2022-11-15T02:37:51.816Z,0.00
2022-11-15T02:38:51.785Z,0.00
2022-11-15T02:39:51.767Z,0.00
2022-11-15T02:40:51.741Z,0.00
2022-11-15T02:41:51.718Z,0.00
2022-11-15T02:42:51.708Z,0.00
2022-11-15T02:43:51.664Z,0.00
2022-11-15T02:44:51.640Z,0.00
2022-11-15T02:45:51.626Z,0.00
2022-11-15T02:46:51.598Z,0.00
2022-11-15T02:47:51.587Z,0.00
2022-11-15T02:48:51.566Z,0.00
2022-11-15T02:49:51.534Z,0.00
2022-11-15T02:50:51.500Z,0.00
2022-11-15T02:51:51.478Z,0.00
2022-11-15T02:52:51.453Z,0.00
2022-11-15T02:53:51.428Z,0.00
2022-11-15T02:54:51.454Z,0.00
2022-11-15T02:55:51.383Z,0.00
2022-11-15T02:56:51.355Z,0.00
2022-11-15T02:57:51.334Z,0.00
2022-11-15T02:58:51.309Z,0.00
2022-11-15T02:59:51.281Z,0.00
2022-11-15T03:00:51.303Z,0.00
2022-11-15T03:01:51.232Z,0.00
2022-11-15T03:02:51.210Z,0.00
2022-11-15T03:03:51.185Z,0.00
2022-11-15T03:04:51.165Z,0.00
2022-11-15T03:05:51.144Z,0.00
2022-11-15T03:06:51.194Z,0.00
2022-11-15T03:07:51.088Z,0.00
2022-11-15T03:08:51.065Z,0.00
2022-11-15T03:09:51.052Z,0.00
2022-11-15T03:10:51.022Z,0.00
2022-11-15T03:11:51.000Z,0.00
2022-11-15T03:12:50.979Z,0.00
2022-11-15T03:13:50.947Z,0.00
2022-11-15T03:14:50.931Z,0.00
2022-11-15T03:15:50.905Z,0.00
2022-11-15T03:16:50.876Z,0.00
2022-11-15T03:17:50.852Z,0.00
2022-11-15T03:18:50.841Z,0.00
2022-11-15T03:19:50.807Z,0.00
2022-11-15T03:20:50.778Z,0.00
2022-11-15T03:21:50.753Z,0.00
2022-11-15T03:22:50.728Z,0.00
2022-11-15T03:23:50.744Z,0.00
2022-11-15T03:24:50.678Z,0.00
2022-11-15T03:25:50.654Z,0.00
2022-11-15T03:26:50.631Z,0.00
2022-11-15T03:27:50.611Z,0.00
2022-11-15T03:28:50.591Z,0.00
2022-11-15T03:29:50.561Z,0.00
2022-11-15T03:30:50.532Z,0.00
2022-11-15T03:31:51.531Z,0.00
2022-11-15T03:32:50.479Z,0.00
2022-11-15T03:33:50.470Z,0.00
2022-11-15T03:34:50.468Z,0.00
2022-11-15T03:35:50.414Z,0.00
2022-11-15T03:36:50.390Z,0.00
2022-11-15T03:37:50.412Z,0.00
2022-11-15T03:38:50.336Z,0.00
2022-11-15T03:39:50.331Z,0.00
2022-11-15T03:40:50.293Z,0.00
2022-11-15T03:41:50.268Z,0.00
2022-11-15T03:42:50.268Z,0.00
2022-11-15T03:43:50.219Z,0.00
2022-11-15T03:44:50.196Z,0.00
2022-11-15T03:45:50.172Z,0.00
2022-11-15T03:46:50.150Z,0.00
2022-11-15T03:47:50.140Z,0.00
2022-11-15T03:48:50.125Z,0.00
2022-11-15T03:49:50.073Z,0.00
2022-11-15T03:50:50.052Z,0.00
2022-11-15T03:51:50.024Z,0.00
2022-11-15T03:52:50.045Z,0.00
2022-11-15T03:53:49.972Z,0.00
2022-11-15T03:54:49.947Z,0.00
2022-11-15T03:55:49.925Z,0.00
2022-11-15T03:56:49.897Z,0.00
2022-11-15T03:57:49.874Z,0.00
2022-11-15T03:58:49.848Z,0.00
2022-11-15T03:59:49.839Z,0.00
2022-11-15T04:00:49.858Z,0.00
2022-11-15T04:01:49.777Z,0.00
2022-11-15T04:02:49.754Z,0.00
2022-11-15T04:03:49.736Z,0.00
2022-11-15T04:04:49.712Z,0.00
2022-11-15T04:05:49.675Z,0.00
2022-11-15T04:06:49.706Z,0.00
2022-11-15T04:07:49.630Z,0.00
2022-11-15T04:08:49.615Z,0.00
2022-11-15T04:09:49.611Z,0.00
2022-11-15T04:10:49.553Z,0.00
2022-11-15T04:11:49.539Z,0.00
2022-11-15T04:12:49.509Z,0.00
2022-11-15T04:13:49.512Z,0.00
2022-11-15T04:14:49.460Z,0.00
2022-11-15T04:15:49.438Z,0.00
2022-11-15T04:16:49.445Z,0.00
2022-11-15T04:17:49.384Z,0.00
2022-11-15T04:18:49.380Z,0.00
2022-11-15T04:19:49.335Z,0.00
2022-11-15T04:20:49.312Z,0.00
2022-11-15T04:21:49.293Z,0.00
2022-11-15T04:22:49.269Z,0.00
2022-11-15T04:23:49.244Z,0.00
2022-11-15T04:24:49.216Z,0.00
2022-11-15T04:25:49.196Z,0.00
2022-11-15T04:26:49.173Z,0.00
2022-11-15T04:27:49.159Z,0.00
2022-11-15T04:28:49.119Z,0.00
2022-11-15T04:29:49.100Z,0.00
2022-11-15T04:30:49.074Z,0.00
2022-11-15T04:31:49.056Z,0.00
2022-11-15T04:32:49.044Z,0.00
2022-11-15T04:33:49.007Z,0.00
2022-11-15T04:34:48.984Z,0.00
2022-11-15T04:35:48.961Z,0.00
2022-11-15T04:36:48.933Z,0.00
2022-11-15T04:37:49.435Z,0.00
2022-11-15T04:38:48.878Z,0.00
2022-11-15T04:39:48.860Z,0.00
2022-11-15T04:40:48.835Z,0.00
2022-11-15T04:41:48.805Z,0.00
2022-11-15T04:42:48.786Z,0.00
2022-11-15T04:43:48.757Z,0.00
2022-11-15T04:44:48.742Z,0.00
2022-11-15T04:45:48.716Z,0.00
2022-11-15T04:46:48.690Z,0.00
2022-11-15T04:47:48.672Z,0.00
2022-11-15T04:48:48.646Z,0.00
2022-11-15T04:49:48.615Z,0.00
2022-11-15T04:50:48.591Z,0.00
2022-11-15T04:51:48.578Z,0.00
2022-11-15T04:52:48.556Z,0.00
2022-11-15T04:53:48.523Z,0.00
2022-11-15T04:54:48.508Z,0.00
2022-11-15T04:55:48.475Z,0.00
2022-11-15T04:56:48.455Z,0.00
2022-11-15T04:57:48.431Z,0.00
2022-11-15T04:58:48.405Z,0.00
2022-11-15T04:59:48.389Z,0.00
2022-11-15T05:00:48.392Z,0.00
2022-11-15T05:01:48.408Z,0.00
2022-11-15T05:02:48.325Z,0.00
2022-11-15T05:03:48.298Z,0.00
2022-11-15T05:04:48.265Z,0.00
2022-11-15T05:05:48.237Z,0.00
2022-11-15T05:06:48.279Z,0.00
2022-11-15T05:07:48.206Z,0.00
2022-11-15T05:08:48.173Z,0.00
2022-11-15T05:09:48.145Z,0.00
2022-11-15T05:10:48.125Z,0.00
2022-11-15T05:11:48.094Z,0.00
2022-11-15T05:12:48.074Z,0.00
2022-11-15T05:13:48.044Z,0.00
2022-11-15T05:14:48.023Z,0.00
2022-11-15T05:15:47.999Z,0.00
2022-11-15T05:16:47.971Z,0.00
2022-11-15T05:17:47.950Z,0.00
2022-11-15T05:18:47.921Z,0.00
2022-11-15T05:19:47.897Z,0.00
2022-11-15T05:20:47.874Z,0.00
2022-11-15T05:21:47.854Z,0.00
2022-11-15T05:22:47.845Z,0.00
2022-11-15T05:23:47.839Z,0.00
2022-11-15T05:24:47.784Z,0.00
2022-11-15T05:25:47.773Z,0.00
2022-11-15T05:26:47.739Z,0.00
2022-11-15T05:27:47.729Z,0.00
2022-11-15T05:28:47.696Z,0.00
2022-11-15T05:29:47.688Z,0.00
2022-11-15T05:30:47.639Z,0.00
2022-11-15T05:31:47.617Z,0.00
2022-11-15T05:32:47.591Z,0.00
2022-11-15T05:33:47.581Z,0.00
2022-11-15T05:34:47.539Z,0.00
2022-11-15T05:35:47.521Z,0.00
2022-11-15T05:36:47.498Z,0.00
2022-11-15T05:37:47.481Z,0.00
2022-11-15T05:38:47.452Z,0.00
2022-11-15T05:39:47.421Z,0.00
2022-11-15T05:40:47.396Z,0.00
2022-11-15T05:41:47.374Z,0.00
2022-11-15T05:42:47.369Z,0.00
2022-11-15T05:43:47.330Z,0.00
2022-11-15T05:44:47.304Z,0.00
2022-11-15T05:45:47.284Z,0.00
2022-11-15T05:46:47.258Z,0.00
2022-11-15T05:47:47.236Z,0.00
2022-11-15T05:48:47.209Z,0.00
2022-11-15T05:49:47.186Z,0.00
2022-11-15T05:50:47.169Z,0.00
2022-11-15T05:51:47.138Z,0.00
2022-11-15T05:52:47.117Z,0.00
2022-11-15T05:53:47.097Z,0.00
2022-11-15T05:54:47.068Z,0.00
2022-11-15T05:55:47.048Z,0.00
2022-11-15T05:56:47.024Z,0.00
2022-11-15T05:57:46.996Z,0.00
2022-11-15T05:58:46.986Z,0.00
2022-11-15T05:59:46.950Z,0.00
2022-11-15T06:00:46.928Z,0.00
2022-11-15T06:01:46.980Z,0.00
2022-11-15T06:02:46.883Z,0.00
2022-11-15T06:03:46.858Z,0.00
2022-11-15T06:04:46.832Z,0.00
2022-11-15T06:05:46.813Z,0.00
2022-11-15T06:06:46.840Z,0.00
2022-11-15T06:07:46.765Z,0.00
2022-11-15T06:08:46.741Z,0.00
2022-11-15T06:09:46.716Z,0.00
2022-11-15T06:10:46.693Z,0.00
2022-11-15T06:11:46.693Z,0.00
2022-11-15T06:12:46.641Z,0.00
2022-11-15T06:13:46.621Z,0.00
2022-11-15T06:14:46.596Z,0.00
2022-11-15T06:15:46.568Z,0.00
2022-11-15T06:16:46.557Z,0.00
2022-11-15T06:17:46.523Z,0.00
2022-11-15T06:18:46.502Z,0.00
2022-11-15T06:19:46.481Z,0.00
2022-11-15T06:20:46.477Z,0.00
2022-11-15T06:21:46.445Z,0.00
2022-11-15T06:22:46.409Z,0.00
2022-11-15T06:23:46.381Z,0.00
2022-11-15T06:24:46.352Z,0.00
2022-11-15T06:25:46.364Z,0.00
2022-11-15T06:26:46.307Z,0.00
2022-11-15T06:27:46.287Z,0.00
2022-11-15T06:28:46.273Z,5.63
2022-11-15T06:29:46.239Z,5.63
2022-11-15T06:30:50.503Z,5.63
2022-11-15T06:31:46.191Z,5.63
2022-11-15T06:32:46.163Z,5.63
2022-11-15T06:33:46.143Z,5.63
2022-11-15T06:34:46.184Z,5.63
2022-11-15T06:35:46.096Z,5.63
2022-11-15T06:36:46.075Z,5.63
2022-11-15T06:37:46.069Z,11.25
2022-11-15T06:38:46.032Z,11.25
2022-11-15T06:39:46.013Z,11.25
2022-11-15T06:40:45.979Z,11.25
2022-11-15T06:41:45.950Z,11.25
2022-11-15T06:42:45.930Z,16.88
2022-11-15T06:43:45.907Z,16.88
2022-11-15T06:44:45.878Z,16.88
2022-11-15T06:45:45.852Z,22.50
2022-11-15T06:46:45.830Z,22.50
2022-11-15T06:47:45.811Z,28.13
2022-11-15T06:48:45.783Z,28.13
2022-11-15T06:49:45.759Z,33.75
2022-11-15T06:50:45.738Z,33.75
2022-11-15T06:51:45.712Z,33.75
2022-11-15T06:52:45.688Z,33.75
2022-11-15T06:53:45.662Z,39.38
2022-11-15T06:54:45.640Z,45.00
2022-11-15T06:55:45.623Z,45.00
2022-11-15T06:56:45.594Z,50.63
2022-11-15T06:57:45.570Z,50.63
2022-11-15T06:58:45.546Z,50.63
2022-11-15T06:59:45.527Z,50.63
2022-11-15T07:00:45.492Z,50.63
2022-11-15T07:01:45.509Z,50.63
2022-11-15T07:02:45.454Z,56.25
2022-11-15T07:03:45.426Z,56.25
2022-11-15T07:04:45.399Z,56.25
2022-11-15T07:05:45.373Z,56.25
2022-11-15T07:06:45.385Z,56.25
2022-11-15T07:07:45.331Z,61.88
2022-11-15T07:08:45.307Z,61.88
2022-11-15T07:09:45.311Z,61.88
2022-11-15T07:10:45.256Z,61.88
2022-11-15T07:11:45.243Z,61.88
2022-11-15T07:12:45.208Z,67.50
2022-11-15T07:13:45.185Z,67.50
2022-11-15T07:14:45.160Z,73.13
2022-11-15T07:15:45.137Z,73.13
2022-11-15T07:16:45.129Z,78.75
2022-11-15T07:17:45.101Z,78.75
2022-11-15T07:18:45.071Z,78.75
2022-11-15T07:19:45.045Z,84.38
2022-11-15T07:20:45.018Z,90.00
2022-11-15T07:21:44.998Z,90.00
2022-11-15T07:22:44.969Z,95.63
2022-11-15T07:23:44.950Z,101.25
2022-11-15T07:24:44.935Z,101.25
2022-11-15T07:25:44.905Z,101.25
2022-11-15T07:26:44.884Z,101.25
2022-11-15T07:27:44.904Z,101.25
2022-11-15T07:28:44.830Z,106.88
2022-11-15T07:29:44.806Z,106.88
2022-11-15T07:30:45.505Z,112.50
2022-11-15T07:31:44.758Z,118.13
2022-11-15T07:32:44.732Z,118.13
2022-11-15T07:33:44.709Z,118.13
2022-11-15T07:34:44.684Z,123.75
2022-11-15T07:35:44.666Z,123.75
2022-11-15T07:36:44.634Z,123.75
2022-11-15T07:37:44.616Z,123.75
2022-11-15T07:38:44.594Z,129.38
2022-11-15T07:39:44.574Z,129.38
2022-11-15T07:40:44.545Z,129.38
2022-11-15T07:41:44.515Z,129.38
2022-11-15T07:42:44.500Z,135.00
2022-11-15T07:43:44.475Z,123.75
2022-11-15T07:44:44.450Z,118.13
2022-11-15T07:45:44.426Z,118.13
2022-11-15T07:46:44.406Z,118.13
2022-11-15T07:47:44.386Z,118.13
2022-11-15T07:48:45.333Z,118.13
2022-11-15T07:49:44.342Z,112.50
2022-11-15T07:50:44.318Z,118.13
2022-11-15T07:51:44.316Z,118.13
2022-11-15T07:52:44.266Z,129.38
2022-11-15T07:53:44.245Z,118.13
2022-11-15T07:54:44.217Z,151.88
2022-11-15T07:55:44.194Z,151.88
2022-11-15T07:56:44.172Z,157.50
2022-11-15T07:57:44.146Z,146.25
2022-11-15T07:58:44.127Z,146.25
2022-11-15T07:59:44.096Z,135.00
2022-11-15T08:00:44.086Z,146.25
2022-11-15T08:01:44.240Z,146.25
2022-11-15T08:02:44.147Z,151.88
2022-11-15T08:03:44.012Z,157.50
2022-11-15T08:04:43.983Z,157.50
2022-11-15T08:05:43.990Z,157.50
2022-11-15T08:06:43.938Z,157.50
2022-11-15T08:07:43.914Z,151.88
2022-11-15T08:08:43.893Z,163.13
2022-11-15T08:09:43.870Z,168.75
2022-11-15T08:10:43.848Z,174.38
2022-11-15T08:11:43.827Z,174.38
2022-11-15T08:12:43.869Z,185.63
2022-11-15T08:13:43.809Z,196.88
2022-11-15T08:14:43.766Z,208.13
2022-11-15T08:15:43.737Z,213.75
2022-11-15T08:16:43.718Z,225.00
2022-11-15T08:17:43.692Z,230.63
2022-11-15T08:18:43.676Z,230.63
2022-11-15T08:19:43.648Z,236.25
2022-11-15T08:20:43.644Z,241.88
2022-11-15T08:21:43.611Z,241.88
2022-11-15T08:22:43.584Z,247.50
2022-11-15T08:23:43.568Z,247.50
2022-11-15T08:24:43.544Z,253.13
2022-11-15T08:25:43.536Z,253.13
2022-11-15T08:26:43.503Z,253.13
2022-11-15T08:27:43.537Z,247.50
2022-11-15T08:28:43.455Z,241.88
2022-11-15T08:29:43.465Z,230.63
2022-11-15T08:30:43.414Z,236.25
2022-11-15T08:31:43.393Z,236.25
2022-11-15T08:32:43.369Z,247.50
2022-11-15T08:33:43.355Z,225.00
2022-11-15T08:34:43.327Z,219.38
2022-11-15T08:35:43.326Z,219.38
2022-11-15T08:36:46.176Z,225.00
2022-11-15T08:37:43.261Z,236.25
2022-11-15T08:38:43.248Z,236.25
2022-11-15T08:39:43.223Z,236.25
2022-11-15T08:40:43.203Z,236.25
2022-11-15T08:41:43.181Z,241.88
2022-11-15T08:42:43.175Z,241.88
2022-11-15T08:43:43.141Z,241.88
2022-11-15T08:44:43.120Z,236.25
2022-11-15T08:45:43.125Z,236.25
2022-11-15T08:46:43.079Z,241.88
2022-11-15T08:47:43.063Z,241.88
2022-11-15T08:48:43.037Z,247.50
2022-11-15T08:49:43.026Z,253.13
2022-11-15T08:50:42.994Z,258.75
2022-11-15T08:51:42.983Z,264.38
2022-11-15T08:52:42.963Z,275.63
2022-11-15T08:53:42.938Z,286.88
2022-11-15T08:54:42.945Z,292.50
2022-11-15T08:55:42.895Z,298.13
2022-11-15T08:56:42.878Z,298.13
2022-11-15T08:57:42.859Z,292.50
2022-11-15T08:58:42.841Z,298.13
2022-11-15T08:59:42.809Z,309.38
2022-11-15T09:00:42.793Z,298.13
2022-11-15T09:01:42.870Z,298.13
2022-11-15T09:02:42.758Z,298.13
2022-11-15T09:03:42.749Z,303.75
2022-11-15T09:04:42.717Z,326.25
2022-11-15T09:05:42.697Z,331.88
2022-11-15T09:06:43.430Z,326.25
2022-11-15T09:07:42.695Z,326.25
2022-11-15T09:08:49.807Z,326.25
2022-11-15T09:09:42.614Z,326.25
2022-11-15T09:10:42.596Z,315.00
2022-11-15T09:11:42.574Z,303.75
2022-11-15T09:12:42.556Z,298.13
2022-11-15T09:13:42.539Z,309.38
2022-11-15T09:14:42.520Z,315.00
2022-11-15T09:15:42.497Z,326.25
2022-11-15T09:16:42.478Z,309.38
2022-11-15T09:17:42.469Z,298.13
2022-11-15T09:18:42.442Z,292.50
2022-11-15T09:19:42.420Z,309.38
2022-11-15T09:20:42.405Z,309.38
2022-11-15T09:21:42.390Z,298.13
2022-11-15T09:22:42.368Z,286.88
2022-11-15T09:23:42.351Z,275.63
2022-11-15T09:24:42.339Z,275.63
2022-11-15T09:25:42.313Z,275.63
2022-11-15T09:26:42.290Z,281.25
2022-11-15T09:27:42.277Z,298.13
2022-11-15T09:28:42.250Z,320.63
2022-11-15T09:29:42.226Z,337.50
2022-11-15T09:30:42.214Z,360.00
2022-11-15T09:31:42.194Z,354.38
2022-11-15T09:32:42.173Z,337.50
2022-11-15T09:33:42.164Z,337.50
2022-11-15T09:34:42.157Z,320.63
2022-11-15T09:35:42.128Z,315.00
2022-11-15T09:36:42.100Z,309.38
2022-11-15T09:37:42.080Z,303.75
2022-11-15T09:38:42.083Z,303.75
2022-11-15T09:39:42.046Z,298.13
2022-11-15T09:40:42.030Z,286.88
2022-11-15T09:41:42.011Z,286.88
2022-11-15T09:42:41.998Z,292.50
2022-11-15T09:43:41.972Z,298.13
2022-11-15T09:44:41.952Z,298.13
2022-11-15T09:45:41.936Z,303.75
2022-11-15T09:46:41.919Z,309.38
2022-11-15T09:47:41.895Z,309.38
2022-11-15T09:48:41.882Z,320.63
2022-11-15T09:49:41.866Z,343.13
2022-11-15T09:50:41.930Z,365.63
2022-11-15T09:51:41.855Z,376.88
2022-11-15T09:52:41.809Z,388.13
2022-11-15T09:54:57.186Z,376.88
2022-11-15T09:55:41.749Z,433.13
2022-11-15T09:56:41.732Z,444.38
2022-11-15T09:57:41.714Z,388.13
2022-11-15T09:58:41.701Z,376.88
2022-11-15T09:59:41.679Z,393.75
2022-11-15T10:00:47.229Z,405.00
2022-11-15T10:01:41.646Z,376.88
2022-11-15T10:02:41.621Z,421.88
2022-11-15T10:03:41.602Z,399.38
2022-11-15T10:04:41.584Z,393.75
2022-11-15T10:05:41.575Z,365.63
2022-11-15T10:06:41.570Z,354.38
2022-11-15T10:07:41.525Z,416.25
2022-11-15T10:08:41.512Z,410.63
2022-11-15T10:09:41.490Z,365.63
2022-11-15T10:10:41.476Z,416.25
2022-11-15T10:11:41.478Z,427.50
2022-11-15T10:12:41.440Z,393.75
2022-11-15T10:13:41.427Z,382.50
2022-11-15T10:14:41.429Z,393.75
2022-11-15T10:15:41.432Z,410.63
2022-11-15T10:16:41.366Z,427.50
2022-11-15T10:17:41.358Z,399.38
2022-11-15T10:18:41.330Z,393.75
2022-11-15T10:19:41.317Z,382.50
2022-11-15T10:20:41.296Z,365.63
2022-11-15T10:21:41.284Z,343.13
2022-11-15T10:22:41.336Z,315.00
2022-11-15T10:23:41.259Z,309.38
2022-11-15T10:24:41.235Z,303.75
2022-11-15T10:25:41.238Z,303.75
2022-11-15T10:26:41.225Z,303.75
2022-11-15T10:27:41.182Z,298.13
2022-11-15T10:28:41.161Z,303.75
2022-11-15T10:29:41.174Z,303.75
2022-11-15T10:30:41.147Z,298.13
2022-11-15T10:31:41.107Z,281.25
2022-11-15T10:32:41.092Z,270.00
2022-11-15T10:33:41.072Z,253.13
2022-11-15T10:34:41.067Z,236.25
2022-11-15T10:35:41.033Z,225.00
2022-11-15T10:36:43.849Z,219.38
2022-11-15T10:37:41.006Z,213.75
2022-11-15T10:38:41.040Z,225.00
2022-11-15T10:39:40.960Z,236.25
2022-11-15T10:40:40.942Z,253.13
2022-11-15T10:41:40.931Z,264.38
2022-11-15T10:42:41.032Z,270.00
2022-11-15T10:43:40.891Z,270.00
2022-11-15T10:44:40.891Z,270.00
2022-11-15T10:45:40.856Z,264.38
2022-11-15T10:46:48.264Z,253.13
2022-11-15T10:47:40.820Z,253.13
2022-11-15T10:48:40.797Z,247.50
2022-11-15T10:49:40.781Z,247.50
2022-11-15T10:50:40.759Z,253.13
2022-11-15T10:51:40.739Z,253.13
2022-11-15T10:52:40.730Z,253.13
2022-11-15T10:53:40.717Z,258.75
2022-11-15T10:54:40.682Z,264.38
2022-11-15T10:55:40.657Z,270.00
2022-11-15T10:56:40.644Z,275.63
2022-11-15T10:57:40.620Z,275.63
2022-11-15T10:58:40.606Z,270.00
2022-11-15T10:59:40.588Z,258.75
2022-11-15T11:00:40.560Z,253.13
2022-11-15T11:01:40.560Z,253.13
2022-11-15T11:02:40.532Z,264.38
2022-11-15T11:03:40.507Z,264.38
2022-11-15T11:04:40.488Z,258.75
2022-11-15T11:05:42.528Z,258.75
2022-11-15T11:06:40.449Z,258.75
2022-11-15T11:07:40.433Z,264.38
2022-11-15T11:08:40.413Z,281.25
2022-11-15T11:09:40.397Z,292.50
2022-11-15T11:11:01.330Z,320.63
2022-11-15T11:11:40.351Z,320.63
2022-11-15T11:12:40.333Z,326.25
2022-11-15T11:13:40.321Z,331.88
2022-11-15T11:14:40.298Z,343.13
2022-11-15T11:15:40.280Z,337.50
2022-11-15T11:16:40.254Z,331.88
2022-11-15T11:17:40.236Z,326.25
2022-11-15T11:18:40.227Z,343.13
2022-11-15T11:19:40.199Z,360.00
2022-11-15T11:20:40.191Z,365.63
2022-11-15T11:21:40.446Z,354.38
2022-11-15T11:22:40.148Z,354.38
2022-11-15T11:23:40.120Z,365.63
2022-11-15T11:24:40.103Z,376.88
2022-11-15T11:25:40.082Z,382.50
2022-11-15T11:26:40.065Z,371.25
2022-11-15T11:27:40.043Z,360.00
2022-11-15T11:28:40.027Z,360.00
2022-11-15T11:29:40.007Z,365.63
2022-11-15T11:30:39.983Z,376.88
2022-11-15T11:31:39.969Z,393.75
2022-11-15T11:32:39.955Z,410.63
2022-11-15T11:33:39.931Z,427.50
2022-11-15T11:34:39.918Z,421.88
2022-11-15T11:35:39.929Z,433.13
2022-11-15T11:36:39.877Z,489.38
2022-11-15T11:37:39.858Z,478.13
2022-11-15T11:38:39.842Z,534.38
2022-11-15T11:39:39.817Z,528.75
2022-11-15T11:40:39.796Z,641.25
2022-11-15T11:41:39.783Z,551.25
2022-11-15T11:42:39.760Z,528.75
2022-11-15T11:43:39.740Z,466.88
2022-11-15T11:44:39.770Z,433.13
2022-11-15T11:45:43.468Z,405.00
2022-11-15T11:46:39.700Z,388.13
2022-11-15T11:47:39.671Z,388.13
2022-11-15T11:48:39.652Z,365.63
2022-11-15T11:49:39.642Z,354.38
2022-11-15T11:50:39.652Z,343.13
2022-11-15T11:51:39.615Z,331.88
2022-11-15T11:52:39.585Z,320.63
2022-11-15T11:53:39.566Z,337.50
2022-11-15T11:54:39.550Z,365.63
2022-11-15T11:55:39.534Z,416.25
2022-11-15T11:56:39.508Z,455.63
2022-11-15T11:57:39.495Z,478.13
2022-11-15T11:58:39.473Z,517.50
2022-11-15T11:59:39.458Z,517.50
2022-11-15T12:00:39.437Z,489.38
2022-11-15T12:01:39.527Z,540.00
2022-11-15T12:02:39.522Z,753.75
2022-11-15T12:03:39.390Z,731.25
2022-11-15T12:04:39.371Z,680.63
2022-11-15T12:05:39.355Z,669.38
2022-11-15T12:06:39.335Z,551.25
2022-11-15T12:07:39.326Z,534.38
2022-11-15T12:08:39.315Z,483.75
2022-11-15T12:09:39.287Z,461.25
2022-11-15T12:10:39.294Z,433.13
2022-11-15T12:11:39.278Z,410.63
2022-11-15T12:12:39.264Z,416.25
2022-11-15T12:13:39.220Z,421.88
2022-11-15T12:14:39.208Z,421.88
2022-11-15T12:15:39.180Z,427.50
2022-11-15T12:16:39.198Z,438.75
2022-11-15T12:17:39.147Z,410.63
2022-11-15T12:18:39.153Z,410.63
2022-11-15T12:19:39.134Z,421.88
2022-11-15T12:20:39.111Z,455.63
2022-11-15T12:21:39.081Z,483.75
2022-11-15T12:22:39.070Z,472.50
2022-11-15T12:23:39.064Z,472.50
2022-11-15T12:24:40.023Z,461.25
2022-11-15T12:25:39.019Z,455.63
2022-11-15T12:26:39.010Z,466.88
2022-11-15T12:27:38.977Z,455.63
2022-11-15T12:28:48.593Z,450.00
2022-11-15T12:29:38.952Z,444.38
2022-11-15T12:30:38.924Z,455.63
2022-11-15T12:31:38.921Z,500.63
2022-11-15T12:32:38.892Z,534.38
2022-11-15T12:33:38.877Z,540.00
2022-11-15T12:34:38.859Z,517.50
2022-11-15T12:35:38.847Z,489.38
2022-11-15T12:36:38.825Z,483.75
2022-11-15T12:37:38.877Z,500.63
2022-11-15T12:38:38.793Z,624.38
2022-11-15T12:39:38.773Z,714.38
2022-11-15T12:40:38.764Z,680.63
2022-11-15T12:41:38.743Z,618.75
2022-11-15T12:42:38.726Z,618.75
2022-11-15T12:43:38.708Z,556.88
2022-11-15T12:44:38.689Z,506.25
2022-11-15T12:45:38.697Z,489.38
2022-11-15T12:46:38.674Z,483.75
2022-11-15T12:47:38.639Z,455.63
2022-11-15T12:48:38.640Z,438.75
2022-11-15T12:49:38.613Z,410.63
2022-11-15T12:50:38.599Z,427.50
2022-11-15T12:51:38.578Z,500.63
2022-11-15T12:52:38.572Z,568.13
2022-11-15T12:53:38.541Z,556.88
2022-11-15T12:54:38.531Z,573.75
2022-11-15T12:55:38.508Z,528.75
2022-11-15T12:56:38.490Z,506.25